ZGSZ

Shenzhen Bao'an International Airport

Airport
ICAO code
ZGSZ
IATA Code
SZX
Summary
ICAO Region
APAC
ICAO Territory
Location

Bao'an, Shenzhen, Guangdong

Serving
Shenzhen
Elevation
13 ft
Coordinates
22° 38' 21" N , 113° 48' 38" E
KCC
Metar
Observation
ZGSZ 280500Z 03006MPS 350V050 CAVOK 15/M09 Q1024 NOSIG
Station
Shenzhen
Date/Time
2023-01-28 06:00:00
Wind direction
30°
Lowest cloud amount
clouds and visibility OK
Temperature
15°C
Dew point
-9°C
Humidity
18%
QNH
1024 hPa
Weather condition
n/a

Description

Shenzhen Bao'an International Airport is located in the Bao'an District, Shenzhen, Guangdong, China. It is 32 km northwest of the city center.

Climatology

Within the Köppen Climate Classification System, ((Koppen climate classification Cwa)) this climate type generally has warm and humid summers with mild winters. Its extent is from 30 to 50° of latitude mainly on the eastern and western borders of most continents. During the winter, the main weather feature is the mid-latitude cyclone. Convective thunderstorms provide precipitation in the summer months.

Airport map

Aerial View

SKYbrary Partners:

Safety knowledge contributed by: